createdAt,value
2019-02-21T00:00:39.711Z,5.87
2019-02-21T00:01:39.701Z,5.94
2019-02-21T00:02:39.735Z,5.83
2019-02-21T00:03:39.679Z,5.82
2019-02-21T00:04:39.685Z,5.83
2019-02-21T00:05:39.697Z,5.73
2019-02-21T00:06:39.639Z,5.75
2019-02-21T00:07:39.644Z,5.65
2019-02-21T00:08:39.631Z,5.59
2019-02-21T00:09:39.643Z,5.62
2019-02-21T00:10:39.612Z,5.59
2019-02-21T00:11:39.626Z,5.51
2019-02-21T00:12:39.576Z,5.46
2019-02-21T00:13:39.571Z,5.50
2019-02-21T00:14:39.560Z,5.36
2019-02-21T00:15:39.566Z,5.35
2019-02-21T00:16:39.562Z,5.38
2019-02-21T00:17:39.522Z,5.32
2019-02-21T00:18:39.641Z,5.39
2019-02-21T00:19:39.511Z,5.28
2019-02-21T00:20:39.491Z,5.30
2019-02-21T00:21:39.480Z,5.28
2019-02-21T00:22:39.491Z,5.21
2019-02-21T00:23:39.457Z,5.20
2019-02-21T00:24:40.129Z,5.18
2019-02-21T00:25:39.437Z,5.18
2019-02-21T00:26:39.431Z,5.21
2019-02-21T00:27:39.444Z,5.15
2019-02-21T00:28:39.423Z,5.20
2019-02-21T00:29:39.392Z,5.11
2019-02-21T00:30:39.398Z,5.14
2019-02-21T00:31:40.152Z,5.12
2019-02-21T00:32:39.386Z,5.17
2019-02-21T00:33:39.359Z,5.21
2019-02-21T00:34:39.529Z,5.15
2019-02-21T00:35:39.330Z,5.17
2019-02-21T00:36:39.315Z,5.20
2019-02-21T00:37:39.344Z,5.17
2019-02-21T00:38:39.301Z,5.28
2019-02-21T00:39:39.288Z,5.25
2019-02-21T00:40:39.269Z,5.28
2019-02-21T00:41:39.261Z,5.26
2019-02-21T00:42:39.244Z,5.28
2019-02-21T00:43:39.253Z,5.23
2019-02-21T00:44:39.231Z,5.28
2019-02-21T00:45:39.214Z,5.29
2019-02-21T00:46:39.235Z,5.38
2019-02-21T00:47:39.197Z,5.38
2019-02-21T00:48:39.202Z,5.36
2019-02-21T00:49:39.173Z,5.38
2019-02-21T00:50:39.238Z,5.33
2019-02-21T00:51:39.181Z,5.46
2019-02-21T00:52:39.136Z,5.44
2019-02-21T00:53:39.130Z,5.53
2019-02-21T00:54:39.138Z,5.48
2019-02-21T00:55:39.138Z,5.48
2019-02-21T00:56:39.098Z,5.53
2019-02-21T00:57:39.105Z,5.59
2019-02-21T00:58:39.087Z,5.59
2019-02-21T00:59:39.055Z,5.53
2019-02-21T01:00:46.545Z,5.65
2019-02-21T01:01:40.095Z,5.62
2019-02-21T01:02:39.031Z,5.73
2019-02-21T01:03:39.016Z,5.69
2019-02-21T01:04:39.006Z,5.79
2019-02-21T01:05:38.991Z,5.73
2019-02-21T01:06:38.984Z,5.76
2019-02-21T01:07:39.004Z,5.80
2019-02-21T01:08:38.963Z,5.79
2019-02-21T01:09:38.954Z,5.75
2019-02-21T01:10:38.943Z,5.82
2019-02-21T01:11:38.927Z,5.83
2019-02-21T01:12:38.935Z,5.94
2019-02-21T01:13:38.935Z,5.94
2019-02-21T01:14:39.007Z,5.93
2019-02-21T01:15:38.885Z,5.87
2019-02-21T01:16:38.871Z,5.91
2019-02-21T01:17:38.870Z,5.87
2019-02-21T01:18:38.874Z,5.89
2019-02-21T01:19:38.840Z,6.02
2019-02-21T01:20:38.828Z,5.89
2019-02-21T01:21:38.823Z,5.90
2019-02-21T01:22:38.810Z,5.91
2019-02-21T01:23:38.803Z,5.90
2019-02-21T01:24:38.805Z,6.04
2019-02-21T01:25:38.777Z,5.91
2019-02-21T01:26:38.785Z,5.90
2019-02-21T01:27:38.754Z,5.97
2019-02-21T01:28:38.750Z,5.84
2019-02-21T01:29:38.729Z,5.91
2019-02-21T01:30:38.810Z,5.89
2019-02-21T01:31:38.711Z,5.90
2019-02-21T01:32:38.702Z,5.87
2019-02-21T01:33:38.729Z,5.91
2019-02-21T01:34:38.678Z,5.91
2019-02-21T01:35:38.702Z,5.93
2019-02-21T01:36:38.656Z,5.87
2019-02-21T01:37:38.643Z,5.89
2019-02-21T01:38:38.674Z,5.93
2019-02-21T01:39:38.629Z,5.80
2019-02-21T01:40:38.609Z,5.83
2019-02-21T01:41:38.725Z,5.83
2019-02-21T01:42:38.591Z,5.84
2019-02-21T01:43:38.614Z,5.76
2019-02-21T01:44:38.569Z,5.79
2019-02-21T01:45:38.567Z,5.79
2019-02-21T01:46:38.541Z,5.71
2019-02-21T01:47:38.542Z,5.71
2019-02-21T01:48:38.565Z,5.65
2019-02-21T01:49:38.535Z,5.62
2019-02-21T01:50:38.510Z,5.62
2019-02-21T01:51:38.485Z,5.65
2019-02-21T01:52:38.481Z,5.61
2019-02-21T01:53:38.471Z,5.57
2019-02-21T01:54:38.479Z,5.62
2019-02-21T01:55:38.453Z,5.54
2019-02-21T01:56:38.432Z,5.46
2019-02-21T01:57:38.541Z,5.43
2019-02-21T01:58:38.450Z,5.51
2019-02-21T01:59:38.402Z,5.50
2019-02-21T02:00:38.418Z,5.41
2019-02-21T02:01:38.383Z,5.48
2019-02-21T02:02:38.371Z,5.38
2019-02-21T02:03:38.364Z,5.32
2019-02-21T02:04:38.375Z,5.38
2019-02-21T02:05:38.342Z,5.35
2019-02-21T02:06:38.370Z,5.39
2019-02-21T02:07:38.314Z,5.35
2019-02-21T02:08:38.309Z,5.33
2019-02-21T02:09:38.289Z,5.33
2019-02-21T02:10:38.278Z,5.33
2019-02-21T02:11:38.277Z,5.36
2019-02-21T02:12:38.280Z,5.39
2019-02-21T02:13:38.350Z,5.36
2019-02-21T02:14:38.237Z,5.30
2019-02-21T02:15:38.258Z,5.28
2019-02-21T02:16:38.255Z,5.29
2019-02-21T02:17:38.204Z,5.29
2019-02-21T02:18:38.208Z,5.29
2019-02-21T02:19:38.185Z,5.26
2019-02-21T02:20:38.266Z,5.23
2019-02-21T02:21:38.179Z,5.21
2019-02-21T02:22:38.146Z,5.26
2019-02-21T02:23:38.132Z,5.28
2019-02-21T02:24:38.134Z,5.25
2019-02-21T02:25:38.129Z,5.26
2019-02-21T02:26:38.133Z,5.26
2019-02-21T02:27:38.096Z,5.28
2019-02-21T02:28:38.085Z,5.26
2019-02-21T02:29:38.070Z,5.25
2019-02-21T02:30:38.061Z,5.25
2019-02-21T02:31:38.069Z,5.23
2019-02-21T02:32:38.049Z,5.20
2019-02-21T02:33:38.025Z,5.17
2019-02-21T02:34:38.015Z,5.26
2019-02-21T02:35:38.005Z,5.21
2019-02-21T02:36:38.012Z,5.21
2019-02-21T02:37:38.089Z,5.23
2019-02-21T02:38:37.972Z,5.26
2019-02-21T02:39:37.983Z,5.17
2019-02-21T02:40:37.972Z,5.14
2019-02-21T02:41:37.939Z,5.20
2019-02-21T02:42:37.943Z,5.11
2019-02-21T02:43:37.924Z,5.08
2019-02-21T02:44:37.903Z,5.12
2019-02-21T02:45:37.892Z,5.12
2019-02-21T02:46:37.887Z,5.08
2019-02-21T02:47:37.887Z,5.05
2019-02-21T02:48:37.895Z,5.07
2019-02-21T02:49:37.851Z,5.00
2019-02-21T02:50:37.840Z,4.97
2019-02-21T02:51:37.836Z,4.97
2019-02-21T02:52:37.842Z,4.93
2019-02-21T02:53:37.942Z,4.97
2019-02-21T02:54:37.812Z,4.90
2019-02-21T02:55:37.789Z,4.97
2019-02-21T02:56:37.796Z,5.00
2019-02-21T02:57:37.763Z,4.93
2019-02-21T02:58:37.746Z,5.07
2019-02-21T02:59:41.137Z,4.97
2019-02-21T03:00:37.727Z,5.02
2019-02-21T03:01:37.723Z,5.12
2019-02-21T03:02:37.711Z,5.11
2019-02-21T03:03:37.711Z,5.10
2019-02-21T03:04:37.706Z,5.15
2019-02-21T03:05:37.699Z,5.15
2019-02-21T03:06:37.787Z,5.18
2019-02-21T03:07:37.663Z,5.21
2019-02-21T03:08:37.699Z,5.25
2019-02-21T03:09:37.697Z,5.23
2019-02-21T03:10:37.642Z,5.26
2019-02-21T03:11:37.603Z,5.29
2019-02-21T03:12:37.592Z,5.23
2019-02-21T03:13:37.585Z,5.36
2019-02-21T03:14:37.571Z,5.32
2019-02-21T03:15:37.581Z,5.32
2019-02-21T03:16:37.559Z,5.36
2019-02-21T03:17:37.538Z,5.33
2019-02-21T03:18:37.527Z,5.33
2019-02-21T03:19:37.519Z,5.33
2019-02-21T03:20:37.527Z,5.41
2019-02-21T03:21:37.491Z,5.32
2019-02-21T03:22:37.522Z,5.32
2019-02-21T03:23:37.477Z,5.38
2019-02-21T03:24:37.459Z,5.29
2019-02-21T03:25:37.449Z,5.38
2019-02-21T03:26:37.456Z,5.35
2019-02-21T03:27:37.423Z,5.44
2019-02-21T03:28:37.419Z,5.38
2019-02-21T03:29:37.405Z,5.36
2019-02-21T03:30:37.498Z,5.35
2019-02-21T03:31:53.527Z,5.33
2019-02-21T03:32:38.392Z,5.41
2019-02-21T03:33:37.408Z,5.50
2019-02-21T03:34:37.373Z,5.54
2019-02-21T03:35:37.515Z,5.50
2019-02-21T03:36:37.369Z,5.43
2019-02-21T03:37:37.390Z,5.50
2019-02-21T03:38:37.354Z,5.51
2019-02-21T03:39:37.298Z,5.48
2019-02-21T03:40:37.323Z,5.51
2019-02-21T03:41:37.279Z,5.47
2019-02-21T03:42:37.257Z,5.53
2019-02-21T03:43:37.263Z,5.50
2019-02-21T03:44:37.240Z,5.50
2019-02-21T03:45:37.246Z,5.50
2019-02-21T03:46:37.215Z,5.53
2019-02-21T03:47:37.198Z,5.56
2019-02-21T03:48:37.227Z,5.59
2019-02-21T03:49:37.327Z,5.62
2019-02-21T03:50:37.175Z,5.61
2019-02-21T03:51:37.154Z,5.56
2019-02-21T03:52:37.166Z,5.69
2019-02-21T03:53:37.161Z,5.72
2019-02-21T03:54:37.160Z,5.65
2019-02-21T03:55:37.112Z,5.68
2019-02-21T03:56:37.108Z,5.65
2019-02-21T03:57:37.095Z,5.71
2019-02-21T03:58:37.084Z,5.64
2019-02-21T03:59:37.093Z,5.68
2019-02-21T04:00:37.083Z,5.68
2019-02-21T04:01:37.058Z,5.64
2019-02-21T04:02:37.101Z,5.62
2019-02-21T04:03:37.021Z,5.64
2019-02-21T04:04:37.058Z,5.62
2019-02-21T04:05:37.037Z,5.64
2019-02-21T04:06:36.993Z,5.64
2019-02-21T04:07:36.990Z,5.65
2019-02-21T04:08:36.977Z,5.62
2019-02-21T04:09:36.969Z,5.69
2019-02-21T04:10:37.118Z,5.64
2019-02-21T04:11:36.953Z,5.61
2019-02-21T04:12:36.930Z,5.66
2019-02-21T04:13:36.938Z,5.64
2019-02-21T04:14:36.901Z,5.65
2019-02-21T04:15:36.946Z,5.64
2019-02-21T04:16:36.882Z,5.65
2019-02-21T04:17:36.905Z,5.64
2019-02-21T04:18:36.863Z,5.64
2019-02-21T04:19:36.846Z,5.62
2019-02-21T04:20:36.837Z,5.56
2019-02-21T04:21:36.861Z,5.56
2019-02-21T04:22:36.824Z,5.66
2019-02-21T04:23:36.807Z,5.56
2019-02-21T04:24:36.793Z,5.65
2019-02-21T04:25:36.782Z,5.62
2019-02-21T04:26:36.921Z,5.59
2019-02-21T04:27:36.766Z,5.57
2019-02-21T04:28:36.756Z,5.61
2019-02-21T04:29:36.844Z,5.59
2019-02-21T04:30:36.752Z,5.56
2019-02-21T04:31:36.713Z,5.62
2019-02-21T04:32:36.703Z,5.62
2019-02-21T04:33:36.698Z,5.51
2019-02-21T04:34:36.697Z,5.64
2019-02-21T04:35:36.712Z,5.54
2019-02-21T04:36:36.665Z,5.47
2019-02-21T04:37:36.680Z,5.54
2019-02-21T04:38:36.645Z,5.54
2019-02-21T04:39:36.631Z,5.51
2019-02-21T04:40:36.658Z,5.48
2019-02-21T04:41:36.609Z,5.46
2019-02-21T04:42:36.603Z,5.41
2019-02-21T04:43:36.591Z,5.50
2019-02-21T04:44:36.573Z,5.50
2019-02-21T04:45:37.338Z,5.48
2019-02-21T04:46:36.590Z,5.47
2019-02-21T04:47:36.568Z,5.44
2019-02-21T04:48:36.532Z,5.38
2019-02-21T04:49:36.530Z,5.36
2019-02-21T04:50:36.513Z,5.33
2019-02-21T04:51:36.502Z,5.32
2019-02-21T04:52:36.598Z,5.33
2019-02-21T04:53:36.478Z,5.30
2019-02-21T04:54:36.477Z,5.33
2019-02-21T04:55:36.452Z,5.39
2019-02-21T04:56:36.469Z,5.36
2019-02-21T04:57:36.472Z,5.38
2019-02-21T04:58:36.438Z,5.33
2019-02-21T04:59:36.411Z,5.32
2019-02-21T05:00:36.409Z,5.36
2019-02-21T05:01:36.388Z,5.30
2019-02-21T05:02:36.412Z,5.36
2019-02-21T05:03:36.386Z,5.26
2019-02-21T05:04:36.389Z,5.33
2019-02-21T05:05:36.341Z,5.30
2019-02-21T05:06:36.416Z,5.29
2019-02-21T05:07:36.327Z,5.36
2019-02-21T05:08:36.320Z,5.35
2019-02-21T05:09:36.356Z,5.39
2019-02-21T05:10:36.286Z,5.35
2019-02-21T05:11:36.283Z,5.38
2019-02-21T05:12:36.259Z,5.32
2019-02-21T05:13:36.262Z,5.28
2019-02-21T05:14:36.257Z,5.39
2019-02-21T05:15:36.294Z,5.33
2019-02-21T05:16:36.218Z,5.35
2019-02-21T05:17:36.242Z,5.39
2019-02-21T05:18:36.203Z,5.36
2019-02-21T05:19:36.204Z,5.32
2019-02-21T05:20:36.194Z,5.32
2019-02-21T05:21:36.171Z,5.47
2019-02-21T05:22:36.152Z,5.38
2019-02-21T05:23:36.857Z,5.47
2019-02-21T05:24:36.135Z,5.39
2019-02-21T05:25:36.233Z,5.38
2019-02-21T05:26:36.147Z,5.41
2019-02-21T05:27:36.129Z,5.44
2019-02-21T05:28:36.198Z,5.44
2019-02-21T05:29:36.084Z,5.43
2019-02-21T05:30:36.440Z,5.43
2019-02-21T05:31:36.057Z,5.48
2019-02-21T05:32:40.928Z,5.41
2019-02-21T05:33:37.211Z,5.39
2019-02-21T05:34:36.031Z,5.46
2019-02-21T05:35:36.018Z,5.44
2019-02-21T05:36:36.005Z,5.47
2019-02-21T05:37:35.990Z,5.36
2019-02-21T05:38:36.094Z,5.32
2019-02-21T05:39:35.973Z,5.36
2019-02-21T05:40:35.957Z,5.35
2019-02-21T05:41:36.039Z,5.32
2019-02-21T05:42:35.938Z,5.33
2019-02-21T05:43:37.263Z,5.36
2019-02-21T05:44:35.920Z,5.28
2019-02-21T05:45:35.902Z,5.29
2019-02-21T05:46:35.891Z,5.30
2019-02-21T05:47:35.904Z,5.28
2019-02-21T05:48:35.893Z,5.32
2019-02-21T05:49:35.879Z,5.28
2019-02-21T05:50:35.883Z,5.23
2019-02-21T05:51:35.840Z,5.28
2019-02-21T05:52:35.842Z,5.23
2019-02-21T05:53:35.855Z,5.29
2019-02-21T05:54:35.846Z,5.30
2019-02-21T05:55:35.791Z,5.20
2019-02-21T05:56:35.789Z,5.18
2019-02-21T05:57:35.765Z,5.18
2019-02-21T05:58:35.755Z,5.17
2019-02-21T05:59:35.786Z,5.15
2019-02-21T06:00:36.925Z,5.08
2019-02-21T06:01:35.728Z,5.10
2019-02-21T06:02:35.845Z,5.08
2019-02-21T06:03:36.209Z,5.05
2019-02-21T06:04:35.718Z,4.96
2019-02-21T06:05:35.733Z,5.00
2019-02-21T06:06:35.707Z,5.04
2019-02-21T06:07:35.653Z,5.00
2019-02-21T06:08:35.710Z,4.97
2019-02-21T06:09:35.648Z,5.04
2019-02-21T06:10:35.643Z,5.02
2019-02-21T06:11:35.709Z,5.02
2019-02-21T06:12:35.602Z,4.96
2019-02-21T06:13:35.588Z,4.99
2019-02-21T06:14:35.574Z,4.96
2019-02-21T06:15:35.592Z,4.99
2019-02-21T06:16:35.565Z,5.00
2019-02-21T06:17:35.579Z,5.04
2019-02-21T06:18:35.537Z,5.02
2019-02-21T06:19:35.523Z,4.97
2019-02-21T06:20:35.516Z,4.92
2019-02-21T06:21:35.616Z,4.92
2019-02-21T06:22:35.490Z,5.00
2019-02-21T06:23:35.563Z,4.99
2019-02-21T06:24:35.540Z,4.84
2019-02-21T06:25:35.454Z,4.93
2019-02-21T06:26:35.455Z,4.92
2019-02-21T06:27:37.984Z,4.99
2019-02-21T06:28:35.458Z,5.04
2019-02-21T06:29:35.472Z,5.00
2019-02-21T06:30:35.406Z,4.97
2019-02-21T06:31:35.389Z,5.00
2019-02-21T06:32:35.444Z,5.05
2019-02-21T06:33:35.422Z,5.04
2019-02-21T06:34:35.389Z,4.99
2019-02-21T06:35:35.374Z,4.97
2019-02-21T06:36:35.332Z,4.99
2019-02-21T06:37:37.750Z,4.94
2019-02-21T06:38:35.321Z,4.96
2019-02-21T06:39:35.324Z,5.02
2019-02-21T06:40:36.557Z,4.92
2019-02-21T06:41:35.310Z,4.96
2019-02-21T06:42:35.266Z,4.96
2019-02-21T06:43:35.285Z,4.92
2019-02-21T06:44:37.870Z,4.96
2019-02-21T06:45:35.342Z,4.93
2019-02-21T06:46:35.254Z,4.96
2019-02-21T06:47:35.224Z,4.87
2019-02-21T06:48:35.219Z,4.84
2019-02-21T06:49:35.188Z,4.89
2019-02-21T06:50:35.199Z,4.94
2019-02-21T06:51:35.193Z,4.87
2019-02-21T06:52:35.165Z,4.84
2019-02-21T06:53:35.147Z,4.86
2019-02-21T06:54:35.138Z,4.87
2019-02-21T06:55:35.132Z,4.89
2019-02-21T06:56:35.139Z,4.87
2019-02-21T06:57:35.111Z,4.90
2019-02-21T06:58:35.105Z,4.86
2019-02-21T06:59:42.470Z,4.90
2019-02-21T07:00:36.071Z,4.87
2019-02-21T07:01:35.205Z,4.86
2019-02-21T07:02:35.044Z,4.84
2019-02-21T07:03:35.034Z,4.92
2019-02-21T07:04:35.042Z,4.87
2019-02-21T07:05:36.869Z,4.92
2019-02-21T07:06:34.995Z,4.90
2019-02-21T07:07:35.015Z,4.84
2019-02-21T07:08:35.006Z,4.87
2019-02-21T07:09:34.964Z,4.89
2019-02-21T07:10:34.962Z,4.93
2019-02-21T07:11:34.945Z,4.99
2019-02-21T07:12:34.937Z,4.97
2019-02-21T07:13:34.953Z,4.92
2019-02-21T07:14:34.932Z,5.00
2019-02-21T07:15:34.899Z,5.08
2019-02-21T07:16:37.240Z,4.97
2019-02-21T07:17:34.924Z,5.00
2019-02-21T07:18:34.865Z,5.02
2019-02-21T07:19:34.858Z,5.08
2019-02-21T07:20:34.893Z,5.07
2019-02-21T07:21:36.599Z,5.15
2019-02-21T07:22:34.830Z,5.17
2019-02-21T07:23:43.095Z,5.21
2019-02-21T07:24:38.346Z,5.28
2019-02-21T07:25:34.875Z,5.26
2019-02-21T07:26:34.786Z,5.33
2019-02-21T07:27:34.766Z,5.36
2019-02-21T07:28:34.787Z,5.32
2019-02-21T07:29:34.769Z,5.41
2019-02-21T07:30:34.748Z,5.51
2019-02-21T07:31:34.732Z,5.53
2019-02-21T07:32:34.710Z,5.50
2019-02-21T07:33:34.713Z,5.54
2019-02-21T07:34:34.694Z,5.53
2019-02-21T07:35:34.705Z,5.61
2019-02-21T07:36:34.664Z,5.64
2019-02-21T07:37:34.660Z,5.59
2019-02-21T07:38:34.646Z,5.64
2019-02-21T07:39:36.242Z,5.68
2019-02-21T07:40:34.619Z,5.71
2019-02-21T07:41:34.755Z,5.71
2019-02-21T07:42:34.602Z,5.71
2019-02-21T07:43:34.586Z,5.80
2019-02-21T07:44:34.577Z,5.73
2019-02-21T07:45:36.326Z,5.82
2019-02-21T07:46:34.590Z,5.83
2019-02-21T07:47:34.542Z,5.89
2019-02-21T07:48:36.368Z,5.83
2019-02-21T07:49:34.515Z,5.90
2019-02-21T07:50:34.513Z,5.89
2019-02-21T07:51:35.988Z,5.93
2019-02-21T07:52:34.489Z,5.89
2019-02-21T07:53:34.516Z,5.90
2019-02-21T07:54:34.469Z,5.89
2019-02-21T07:55:34.457Z,5.94
2019-02-21T07:56:41.522Z,5.91
2019-02-21T07:57:35.450Z,5.93
2019-02-21T07:58:34.420Z,6.07
2019-02-21T07:59:34.412Z,6.05
2019-02-21T08:00:34.471Z,6.09
2019-02-21T08:01:34.402Z,6.11
2019-02-21T08:02:34.429Z,6.07
2019-02-21T08:03:43.928Z,6.20
2019-02-21T08:04:37.083Z,6.08
2019-02-21T08:05:34.359Z,6.22
2019-02-21T08:06:34.335Z,6.24
2019-02-21T08:07:34.319Z,6.26
2019-02-21T08:08:34.312Z,6.30
2019-02-21T08:09:34.335Z,6.20
2019-02-21T08:10:34.316Z,6.38
2019-02-21T08:11:34.306Z,6.46
2019-02-21T08:12:34.276Z,6.46
2019-02-21T08:13:34.281Z,6.48
2019-02-21T08:14:34.256Z,6.59
2019-02-21T08:15:34.261Z,6.69
2019-02-21T08:16:34.228Z,6.78
2019-02-21T08:17:34.209Z,6.78
2019-02-21T08:18:34.216Z,6.93
2019-02-21T08:19:34.183Z,7.00
2019-02-21T08:20:40.407Z,7.07
2019-02-21T08:21:35.278Z,7.18
2019-02-21T08:22:34.168Z,7.25
2019-02-21T08:23:34.154Z,7.24
2019-02-21T08:24:34.144Z,7.45
2019-02-21T08:25:34.123Z,7.50
2019-02-21T08:26:34.131Z,7.48
2019-02-21T08:27:35.277Z,7.56
2019-02-21T08:28:34.093Z,7.72
2019-02-21T08:29:34.099Z,7.80
2019-02-21T08:30:34.066Z,7.85
2019-02-21T08:31:34.085Z,7.82
2019-02-21T08:32:34.046Z,7.97
2019-02-21T08:33:34.031Z,7.91
2019-02-21T08:34:34.019Z,7.97
2019-02-21T08:35:34.011Z,7.93
2019-02-21T08:36:33.997Z,7.83
2019-02-21T08:37:36.006Z,8.00
2019-02-21T08:38:33.974Z,8.00
2019-02-21T08:39:33.973Z,7.94
2019-02-21T08:40:34.006Z,8.01
2019-02-21T08:41:33.942Z,8.03
2019-02-21T08:42:33.972Z,8.08
2019-02-21T08:43:33.937Z,8.08
2019-02-21T08:44:33.914Z,8.05
2019-02-21T08:45:33.897Z,8.06
2019-02-21T08:46:33.887Z,8.10
2019-02-21T08:47:33.873Z,8.15
2019-02-21T08:48:33.888Z,8.08
2019-02-21T08:49:33.888Z,8.12
2019-02-21T08:50:33.841Z,8.10
2019-02-21T08:51:33.831Z,8.12
2019-02-21T08:52:33.824Z,8.12
2019-02-21T08:53:33.808Z,8.01
2019-02-21T08:54:33.801Z,8.06
2019-02-21T08:55:33.808Z,8.06
2019-02-21T08:56:33.789Z,8.09
2019-02-21T08:57:33.774Z,8.06
2019-02-21T08:58:33.820Z,8.08
2019-02-21T08:59:33.783Z,8.05
2019-02-21T09:00:33.731Z,8.06
2019-02-21T09:01:33.730Z,8.01
2019-02-21T09:02:35.917Z,8.09
2019-02-21T09:03:33.748Z,8.06
2019-02-21T09:04:33.741Z,8.08
2019-02-21T09:05:33.673Z,8.12
2019-02-21T09:06:33.664Z,8.15
2019-02-21T09:07:33.660Z,8.24
2019-02-21T09:08:36.948Z,8.20
2019-02-21T09:09:34.390Z,8.16
2019-02-21T09:10:33.650Z,8.16
2019-02-21T09:11:33.619Z,8.30
2019-02-21T09:12:33.601Z,8.27
2019-02-21T09:13:33.633Z,8.30
2019-02-21T09:14:33.594Z,8.31
2019-02-21T09:15:33.575Z,8.38
2019-02-21T09:16:33.560Z,8.38
2019-02-21T09:17:33.549Z,8.42
2019-02-21T09:18:33.565Z,8.34
2019-02-21T09:19:33.522Z,8.37
2019-02-21T09:20:33.560Z,8.42
2019-02-21T09:21:33.538Z,8.48
2019-02-21T09:22:33.489Z,8.52
2019-02-21T09:23:33.493Z,8.51
2019-02-21T09:24:39.132Z,8.53
2019-02-21T09:25:34.509Z,8.56
2019-02-21T09:26:34.713Z,8.60
2019-02-21T09:27:33.430Z,8.69
2019-02-21T09:28:33.429Z,8.84
2019-02-21T09:29:33.406Z,8.91
2019-02-21T09:30:33.396Z,8.88
2019-02-21T09:31:33.406Z,9.00
2019-02-21T09:32:33.386Z,9.13
2019-02-21T09:33:33.368Z,9.13
2019-02-21T09:34:33.359Z,9.18
2019-02-21T09:35:33.348Z,9.34
2019-02-21T09:36:33.453Z,9.28
2019-02-21T09:37:33.340Z,9.47
2019-02-21T09:38:34.744Z,9.39
2019-02-21T09:39:33.316Z,9.48
2019-02-21T09:40:33.286Z,9.48
2019-02-21T09:41:33.304Z,9.56
2019-02-21T09:42:33.261Z,9.61
2019-02-21T09:43:33.252Z,9.62
2019-02-21T09:44:35.753Z,9.64
2019-02-21T09:45:33.231Z,9.73
2019-02-21T09:46:33.231Z,9.73
2019-02-21T09:47:33.254Z,9.74
2019-02-21T09:48:33.230Z,9.77
2019-02-21T09:49:33.304Z,9.66
2019-02-21T09:50:33.235Z,9.79
2019-02-21T09:51:33.170Z,9.86
2019-02-21T09:52:33.148Z,9.87
2019-02-21T09:53:33.159Z,9.83
2019-02-21T09:54:33.169Z,9.79
2019-02-21T09:55:33.122Z,9.80
2019-02-21T09:56:33.117Z,9.87
2019-02-21T09:57:33.233Z,9.89
2019-02-21T09:58:33.090Z,9.83
2019-02-21T09:59:33.073Z,9.77
2019-02-21T10:00:35.832Z,9.76
2019-02-21T10:01:33.056Z,9.79
2019-02-21T10:02:33.036Z,9.73
2019-02-21T10:03:33.033Z,9.76
2019-02-21T10:04:33.025Z,9.77
2019-02-21T10:05:33.035Z,9.74
2019-02-21T10:06:33.034Z,9.77
2019-02-21T10:07:32.983Z,9.72
2019-02-21T10:08:32.985Z,9.76
2019-02-21T10:09:32.963Z,9.72
2019-02-21T10:10:32.962Z,9.72
2019-02-21T10:11:32.979Z,9.73
2019-02-21T10:12:32.960Z,9.72
2019-02-21T10:13:33.088Z,9.79
2019-02-21T10:14:32.913Z,9.74
2019-02-21T10:15:32.903Z,9.62
2019-02-21T10:16:32.947Z,9.65
2019-02-21T10:17:32.902Z,9.72
2019-02-21T10:18:32.942Z,9.64
2019-02-21T10:19:35.401Z,9.59
2019-02-21T10:20:32.843Z,9.61
2019-02-21T10:21:32.842Z,9.62
2019-02-21T10:22:33.426Z,9.59
2019-02-21T10:23:32.831Z,9.58
2019-02-21T10:24:32.800Z,9.62
2019-02-21T10:25:32.790Z,9.64
2019-02-21T10:26:32.787Z,9.72
2019-02-21T10:27:32.762Z,9.74
2019-02-21T10:28:32.770Z,9.73
2019-02-21T10:29:33.393Z,9.79
2019-02-21T10:30:32.773Z,9.95
2019-02-21T10:31:32.731Z,9.94
2019-02-21T10:32:32.721Z,9.97
2019-02-21T10:33:32.700Z,10.10
2019-02-21T10:34:42.466Z,10.07
2019-02-21T10:35:33.713Z,10.10
2019-02-21T10:36:32.665Z,10.16
2019-02-21T10:37:32.653Z,10.13
2019-02-21T10:38:32.646Z,10.09
2019-02-21T10:39:32.645Z,10.26
2019-02-21T10:40:33.443Z,10.34
2019-02-21T10:41:32.628Z,10.28
2019-02-21T10:42:32.614Z,10.49
2019-02-21T10:43:32.595Z,10.57
2019-02-21T10:44:32.610Z,10.53
2019-02-21T10:45:32.564Z,10.44
2019-02-21T10:46:32.551Z,10.57
2019-02-21T10:47:32.544Z,10.53
2019-02-21T10:48:32.556Z,10.60
2019-02-21T10:49:32.521Z,10.59
2019-02-21T10:50:32.532Z,10.63
2019-02-21T10:51:32.502Z,10.71
2019-02-21T10:52:32.484Z,10.75
2019-02-21T10:53:32.631Z,10.76
2019-02-21T10:54:32.466Z,10.81
2019-02-21T10:55:32.454Z,10.78
2019-02-21T10:56:32.494Z,10.86
2019-02-21T10:57:32.428Z,10.90
2019-02-21T10:58:32.416Z,10.94
2019-02-21T10:59:32.446Z,10.90
2019-02-21T11:00:32.408Z,11.00
2019-02-21T11:01:32.410Z,11.04
2019-02-21T11:02:32.376Z,10.99
2019-02-21T11:03:32.359Z,11.14
2019-02-21T11:04:32.376Z,11.05
2019-02-21T11:05:32.444Z,11.19
2019-02-21T11:06:32.338Z,11.14
2019-02-21T11:07:32.323Z,11.15
2019-02-21T11:08:32.326Z,11.25
2019-02-21T11:09:32.899Z,11.14
2019-02-21T11:10:32.303Z,11.14
2019-02-21T11:11:32.267Z,11.12
2019-02-21T11:12:32.303Z,11.17
2019-02-21T11:13:32.250Z,11.14
2019-02-21T11:14:32.235Z,11.18
2019-02-21T11:15:32.257Z,11.10
2019-02-21T11:16:32.211Z,11.10
2019-02-21T11:17:32.194Z,11.08
2019-02-21T11:18:32.197Z,11.10
2019-02-21T11:19:32.186Z,11.10
2019-02-21T11:20:32.192Z,11.12
2019-02-21T11:21:32.163Z,11.18
2019-02-21T11:22:32.143Z,11.14
2019-02-21T11:23:32.161Z,11.18
2019-02-21T11:24:32.117Z,11.25
2019-02-21T11:25:32.114Z,11.35
2019-02-21T11:26:32.097Z,11.41
2019-02-21T11:27:32.089Z,11.44
2019-02-21T11:28:32.103Z,11.54
2019-02-21T11:29:32.065Z,11.62
2019-02-21T11:30:32.049Z,11.59
2019-02-21T11:31:32.042Z,11.70
2019-02-21T11:32:32.029Z,11.75
2019-02-21T11:33:32.090Z,11.91
2019-02-21T11:34:32.042Z,11.83
2019-02-21T11:35:31.996Z,11.86
2019-02-21T11:36:31.989Z,11.86
2019-02-21T11:37:42.349Z,11.97
2019-02-21T11:38:32.972Z,12.00
2019-02-21T11:39:31.955Z,12.06
2019-02-21T11:40:31.988Z,12.12
2019-02-21T11:41:31.938Z,12.25
2019-02-21T11:42:31.917Z,12.31
2019-02-21T11:43:38.975Z,12.29
2019-02-21T11:44:31.907Z,12.36
2019-02-21T11:45:31.886Z,12.45
2019-02-21T11:46:31.914Z,12.45
2019-02-21T11:47:31.871Z,12.53
2019-02-21T11:48:31.852Z,12.57
2019-02-21T11:49:31.977Z,12.46
2019-02-21T11:50:31.852Z,12.68
2019-02-21T11:51:31.825Z,12.62
2019-02-21T11:52:32.439Z,12.62
2019-02-21T11:53:31.798Z,12.67
2019-02-21T11:54:31.789Z,12.60
2019-02-21T11:55:31.856Z,12.58
2019-02-21T11:56:31.767Z,12.68
2019-02-21T11:57:31.753Z,12.67
2019-02-21T11:58:31.744Z,12.67
2019-02-21T11:59:31.734Z,12.67
2019-02-21T12:00:31.770Z,12.62
2019-02-21T12:01:31.768Z,12.78
2019-02-21T12:02:38.583Z,12.79
2019-02-21T12:03:32.695Z,12.76
2019-02-21T12:04:31.734Z,12.78
2019-02-21T12:05:32.293Z,12.76
2019-02-21T12:06:31.650Z,12.79
2019-02-21T12:07:31.675Z,12.76
2019-02-21T12:08:31.653Z,12.85
2019-02-21T12:09:31.610Z,12.93
2019-02-21T12:10:31.701Z,13.00
2019-02-21T12:11:31.656Z,12.98
2019-02-21T12:12:31.744Z,13.03
2019-02-21T12:13:31.733Z,13.03
2019-02-21T12:14:31.637Z,13.12
2019-02-21T12:15:31.624Z,13.13
2019-02-21T12:16:31.619Z,13.19
2019-02-21T12:17:31.587Z,13.31
2019-02-21T12:18:31.579Z,13.30
2019-02-21T12:19:31.658Z,13.30
2019-02-21T12:20:31.537Z,13.27
2019-02-21T12:21:31.540Z,13.28
2019-02-21T12:22:31.526Z,13.28
2019-02-21T12:23:31.527Z,13.22
2019-02-21T12:24:31.509Z,13.16
2019-02-21T12:25:31.578Z,13.22
2019-02-21T12:26:31.499Z,13.23
2019-02-21T12:27:31.476Z,13.16
2019-02-21T12:28:31.466Z,13.18
2019-02-21T12:29:31.558Z,13.27
2019-02-21T12:30:33.370Z,13.37
2019-02-21T12:31:31.433Z,13.30
2019-02-21T12:32:31.442Z,13.33
2019-02-21T12:33:31.425Z,13.31
2019-02-21T12:34:31.397Z,13.27
2019-02-21T12:35:31.478Z,13.22
2019-02-21T12:36:31.377Z,13.28
2019-02-21T12:37:31.448Z,13.27
2019-02-21T12:38:31.354Z,13.37
2019-02-21T12:39:31.348Z,13.47
2019-02-21T12:40:31.331Z,13.56
2019-02-21T12:41:31.402Z,13.59
2019-02-21T12:42:31.313Z,13.59
2019-02-21T12:43:31.298Z,13.53
2019-02-21T12:44:31.285Z,13.53
2019-02-21T12:45:31.321Z,13.52
2019-02-21T12:46:31.358Z,13.49
2019-02-21T12:47:31.336Z,13.47
2019-02-21T12:48:31.305Z,13.30
2019-02-21T12:49:32.754Z,13.35
2019-02-21T12:50:31.239Z,13.47
2019-02-21T12:51:31.242Z,13.70
2019-02-21T12:52:31.219Z,13.77
2019-02-21T12:53:31.190Z,13.67
2019-02-21T12:54:32.051Z,13.53
2019-02-21T12:55:31.787Z,13.39
2019-02-21T12:56:31.144Z,13.35
2019-02-21T12:57:31.270Z,13.30
2019-02-21T12:58:31.097Z,13.15
2019-02-21T12:59:31.125Z,13.15
2019-02-21T13:00:31.162Z,13.09
2019-02-21T13:01:31.205Z,13.12
2019-02-21T13:02:31.076Z,13.12
2019-02-21T13:03:31.073Z,13.03
2019-02-21T13:04:33.362Z,13.03
2019-02-21T13:05:40.518Z,12.93
2019-02-21T13:06:32.274Z,12.85
2019-02-21T13:07:31.035Z,12.85
2019-02-21T13:08:31.025Z,12.91
2019-02-21T13:09:31.045Z,12.93
2019-02-21T13:10:31.048Z,12.94
2019-02-21T13:11:30.976Z,12.91
2019-02-21T13:12:31.048Z,12.91
2019-02-21T13:13:30.937Z,12.86